LFRH

Lorient South Brittany (Bretagne Sud) Airport

Lorient/Lann/Bihoué, France
TAF LFRH 242300Z 2500/2524 05008KT CAVOK BECMG 2509/2512 06010G20KT BECMG 2517/2518 05008KT
Issued Valid From Valid To
Sep-24 @ 23:00 UTC
(53 minutes ago)
Sep-25 @ 00:00 UTC
(in 7 minutes)
Sep-26 @ 00:00 UTC
(in 24 hours)
Sep-25 @ 00:00 to Sep-25 @ 09:00
TAF LFRH 242300Z 2500/2524 05008KT CAVOK
Wind Visibility Clouds Conditions
50° at 8 knots 10,000+ meters
  • No significant clouds
Becoming Sep-25 @ 09:00 to Sep-25 @ 17:00
BECMG 2509/2512 06010G20KT
Wind Visibility Clouds Conditions
60° at 10 knots
 Gusting to 20 knots
10,000+ meters
  • No significant clouds
Becoming Sep-25 @ 17:00 to Sep-26 @ 00:00
BECMG 2517/2518 05008KT
Wind Visibility Clouds Conditions
50° at 8 knots 10,000+ meters
  • No significant clouds
TAF LFRH 242300Z 2500/2524 05008KT CAVOK BECMG 2509/2512 06010G20KT BECMG 2517/2518 05008KT
Issued Sep-24 @ 23:00 UTC
(53 minutes ago)
Valid From Sep-25 @ 00:00 UTC
(in 7 minutes)
Valid To Sep-26 @ 00:00 UTC
(in 24 hours)
Sep-25 @ 00:00 - Sep-25 @ 09:00
Wind Visibility
50° at 8 knots 10,000+ meters
Clouds
  • No significant clouds
Conditions
Becoming Sep-25 @ 09:00 - Sep-25 @ 17:00
Wind Visibility
60° at 10 knots
 Gusting to 20 knots
10,000+ meters
Clouds
  • No significant clouds
Conditions
Becoming Sep-25 @ 17:00 - Sep-26 @ 00:00
Wind Visibility
50° at 8 knots 10,000+ meters
Clouds
  • No significant clouds
Conditions